createdAt,value
2017-08-07T00:00:29.328Z,3.13
2017-08-07T00:02:57.624Z,3.60
2017-08-07T00:05:25.145Z,3.60
2017-08-07T00:07:52.664Z,3.00
2017-08-07T00:10:20.189Z,3.70
2017-08-07T00:12:47.707Z,4.37
2017-08-07T00:15:15.229Z,3.60
2017-08-07T00:17:42.775Z,4.13
2017-08-07T00:20:10.273Z,4.70
2017-08-07T00:22:37.772Z,5.10
2017-08-07T00:25:06.081Z,4.28
2017-08-07T00:27:33.596Z,4.73
2017-08-07T00:30:01.094Z,3.50
2017-08-07T00:32:29.469Z,3.97
2017-08-07T00:34:56.960Z,4.20
2017-08-07T00:37:24.483Z,3.63
2017-08-07T00:39:52.017Z,4.23
2017-08-07T00:42:19.507Z,4.17
2017-08-07T00:44:47.007Z,4.23
2017-08-07T00:47:14.528Z,3.40
2017-08-07T00:49:42.041Z,3.93
2017-08-07T00:52:09.564Z,3.47
2017-08-07T00:54:37.099Z,4.63
2017-08-07T00:57:04.606Z,5.20
2017-08-07T00:59:32.111Z,5.40
2017-08-07T01:01:59.621Z,4.30
2017-08-07T01:04:27.119Z,4.73
2017-08-07T01:06:54.616Z,5.17
2017-08-07T01:09:22.166Z,4.70
2017-08-07T01:11:49.680Z,5.77
2017-08-07T01:14:17.956Z,4.62
2017-08-07T01:16:46.245Z,4.30
2017-08-07T01:19:13.768Z,5.40
2017-08-07T01:21:41.288Z,4.20
2017-08-07T01:24:08.831Z,5.03
2017-08-07T01:26:36.333Z,4.63
2017-08-07T01:29:03.872Z,5.13
2017-08-07T01:31:31.385Z,5.23
2017-08-07T01:33:58.909Z,4.60
2017-08-07T01:36:26.432Z,4.87
2017-08-07T01:38:53.962Z,4.53
2017-08-07T01:41:21.452Z,4.40
2017-08-07T01:43:48.979Z,4.80
2017-08-07T01:46:16.497Z,4.73
2017-08-07T01:48:43.993Z,4.33
2017-08-07T01:51:11.492Z,5.77
2017-08-07T01:53:39.016Z,5.90
2017-08-07T01:56:06.528Z,5.60
2017-08-07T01:58:34.056Z,4.93
2017-08-07T02:01:01.607Z,5.37
2017-08-07T02:03:29.113Z,6.73
2017-08-07T02:05:56.617Z,5.43
2017-08-07T02:08:24.923Z,6.03
2017-08-07T02:10:52.428Z,8.40
2017-08-07T02:13:19.939Z,6.87
2017-08-07T02:15:47.471Z,6.93
2017-08-07T02:18:15.753Z,8.37
2017-08-07T02:20:44.094Z,8.97
2017-08-07T02:23:11.606Z,8.40
2017-08-07T02:25:39.109Z,8.47
2017-08-07T02:28:06.604Z,8.20
2017-08-07T02:30:34.904Z,9.30
2017-08-07T02:33:02.417Z,7.53
2017-08-07T02:35:29.914Z,6.90
2017-08-07T02:37:57.443Z,6.30
2017-08-07T02:40:24.945Z,7.03
2017-08-07T02:42:52.459Z,7.30
2017-08-07T02:45:20.752Z,6.95
2017-08-07T02:47:49.011Z,6.37
2017-08-07T02:50:16.513Z,6.53
2017-08-07T02:52:44.020Z,7.10
2017-08-07T02:55:11.535Z,7.33
2017-08-07T02:57:39.045Z,6.80
2017-08-07T03:00:07.363Z,7.60
2017-08-07T03:02:34.863Z,6.70
2017-08-07T03:05:02.361Z,7.32
2017-08-07T03:07:29.904Z,6.50
2017-08-07T03:09:58.176Z,7.07
2017-08-07T03:12:25.678Z,7.18
2017-08-07T03:14:53.209Z,7.45
2017-08-07T03:17:20.736Z,7.22
2017-08-07T03:19:48.251Z,6.70
2017-08-07T03:22:15.795Z,6.78
2017-08-07T03:24:43.311Z,6.95
2017-08-07T03:27:10.836Z,6.10
2017-08-07T03:29:38.388Z,6.68
2017-08-07T03:32:05.897Z,6.70
2017-08-07T03:34:33.422Z,6.12
2017-08-07T03:37:00.963Z,6.60
2017-08-07T03:39:28.473Z,3.53
2017-08-07T03:41:55.980Z,6.67
2017-08-07T03:44:23.511Z,6.50
2017-08-07T03:46:51.781Z,5.82
2017-08-07T03:49:20.054Z,6.35
2017-08-07T03:51:47.583Z,5.50
2017-08-07T03:54:15.105Z,5.95
2017-08-07T03:56:42.712Z,6.05
2017-08-07T03:59:10.260Z,6.07
2017-08-07T04:01:37.777Z,5.47
2017-08-07T04:04:05.276Z,5.00
2017-08-07T04:06:32.804Z,3.62
2017-08-07T04:09:00.304Z,3.25
2017-08-07T04:11:27.819Z,3.12
2017-08-07T04:13:55.347Z,2.78
2017-08-07T04:16:23.621Z,2.70
2017-08-07T04:18:51.138Z,3.05
2017-08-07T04:21:18.656Z,2.83
2017-08-07T04:23:46.948Z,3.50
2017-08-07T04:26:14.461Z,2.45
2017-08-07T04:28:41.992Z,2.80
2017-08-07T04:31:09.498Z,2.67
2017-08-07T04:33:37.023Z,2.85
2017-08-07T04:36:04.545Z,2.65
2017-08-07T04:38:32.069Z,2.80
2017-08-07T04:41:00.338Z,3.10
2017-08-07T04:43:27.863Z,2.67
2017-08-07T04:45:55.364Z,2.67
2017-08-07T04:48:22.879Z,3.53
2017-08-07T04:50:50.402Z,2.57
2017-08-07T04:53:17.919Z,2.63
2017-08-07T04:55:45.433Z,3.00
2017-08-07T04:58:12.988Z,4.33
2017-08-07T05:00:40.514Z,3.53
2017-08-07T05:03:08.012Z,3.47
2017-08-07T05:05:35.554Z,3.17
2017-08-07T05:08:03.820Z,2.70
2017-08-07T05:10:32.090Z,3.50
2017-08-07T05:12:59.623Z,2.80
2017-08-07T05:15:27.131Z,3.43
2017-08-07T05:17:54.656Z,3.53
2017-08-07T05:20:22.201Z,3.07
2017-08-07T05:22:49.697Z,2.87
2017-08-07T05:25:17.958Z,2.93
2017-08-07T05:27:45.503Z,2.80
2017-08-07T05:30:13.010Z,3.50
2017-08-07T05:32:40.538Z,2.90
2017-08-07T05:35:08.061Z,2.93
2017-08-07T05:37:35.561Z,3.17
2017-08-07T05:40:03.075Z,3.47
2017-08-07T05:42:30.614Z,3.17
2017-08-07T05:44:58.125Z,2.43
2017-08-07T05:47:26.001Z,2.70
2017-08-07T05:49:53.525Z,3.17
2017-08-07T05:52:21.044Z,2.70
2017-08-07T05:54:48.540Z,2.50
2017-08-07T05:57:16.065Z,2.83
2017-08-07T05:59:43.558Z,2.47
2017-08-07T06:02:11.075Z,2.60
2017-08-07T06:04:38.611Z,2.30
2017-08-07T06:07:06.125Z,2.60
2017-08-07T06:09:33.628Z,2.67
2017-08-07T06:12:01.125Z,2.50
2017-08-07T06:14:28.643Z,2.07
2017-08-07T06:16:56.158Z,2.37
2017-08-07T06:19:23.658Z,2.57
2017-08-07T06:21:51.177Z,2.17
2017-08-07T06:24:18.676Z,1.97
2017-08-07T06:26:46.193Z,3.03
2017-08-07T06:29:13.730Z,2.20
2017-08-07T06:31:50.426Z,1.73
2017-08-07T06:34:17.955Z,1.80
2017-08-07T06:36:45.453Z,2.60
2017-08-07T06:39:12.971Z,1.57
2017-08-07T06:41:40.499Z,1.80
2017-08-07T06:44:08.001Z,1.57
2017-08-07T06:46:35.509Z,1.90
2017-08-07T06:49:03.040Z,1.77
2017-08-07T06:51:30.571Z,1.97
2017-08-07T06:53:58.084Z,2.00
2017-08-07T06:56:25.627Z,1.70
2017-08-07T06:58:53.143Z,1.83
2017-08-07T07:01:20.655Z,1.57
2017-08-07T07:03:48.191Z,2.00
2017-08-07T07:06:15.701Z,1.77
2017-08-07T07:08:43.973Z,1.40
2017-08-07T07:11:11.505Z,1.93
2017-08-07T07:13:38.992Z,1.93
2017-08-07T07:16:06.537Z,2.00
2017-08-07T07:18:34.067Z,1.93
2017-08-07T07:21:01.589Z,1.80
2017-08-07T07:23:29.096Z,1.40
2017-08-07T07:25:56.671Z,1.70
2017-08-07T07:28:24.198Z,1.97
2017-08-07T07:30:51.711Z,1.83
2017-08-07T07:33:20.015Z,1.90
2017-08-07T07:35:47.585Z,1.70
2017-08-07T07:38:15.080Z,1.87
2017-08-07T07:40:42.592Z,1.93
2017-08-07T07:43:10.136Z,1.80
2017-08-07T07:45:38.410Z,2.13
2017-08-07T07:48:06.688Z,1.90
2017-08-07T07:50:34.959Z,1.80
2017-08-07T07:53:03.231Z,2.17
2017-08-07T07:55:31.535Z,1.73
2017-08-07T07:57:59.035Z,1.90
2017-08-07T08:00:26.529Z,1.80
2017-08-07T08:02:54.091Z,1.70
2017-08-07T08:05:22.374Z,2.00
2017-08-07T08:07:49.876Z,2.00
2017-08-07T08:10:17.425Z,1.90
2017-08-07T08:12:44.943Z,1.90
2017-08-07T08:15:13.228Z,2.20
2017-08-07T08:17:41.508Z,2.07
2017-08-07T08:20:09.005Z,2.80
2017-08-07T08:22:36.498Z,2.70
2017-08-07T08:25:04.026Z,2.40
2017-08-07T08:27:31.533Z,2.57
2017-08-07T08:29:59.045Z,2.90
2017-08-07T08:32:26.564Z,2.60
2017-08-07T08:34:54.816Z,2.60
2017-08-07T08:37:22.304Z,3.20
2017-08-07T08:39:49.834Z,2.67
2017-08-07T08:42:18.107Z,2.90
2017-08-07T08:44:45.618Z,2.23
2017-08-07T08:47:13.143Z,2.53
2017-08-07T08:49:41.424Z,2.20
2017-08-07T08:52:08.969Z,2.50
2017-08-07T08:54:37.306Z,3.50
2017-08-07T08:57:04.831Z,2.80
2017-08-07T08:59:32.365Z,2.70
2017-08-07T09:01:59.874Z,2.70
2017-08-07T09:04:27.371Z,2.50
2017-08-07T09:06:54.861Z,2.40
2017-08-07T09:09:22.386Z,2.40
2017-08-07T09:11:49.896Z,2.33
2017-08-07T09:14:17.443Z,2.40
2017-08-07T09:16:44.991Z,2.83
2017-08-07T09:19:12.570Z,2.00
2017-08-07T09:21:40.065Z,2.00
2017-08-07T09:24:07.596Z,2.20
2017-08-07T09:26:35.084Z,2.30
2017-08-07T09:29:02.576Z,2.17
2017-08-07T09:31:30.880Z,2.20
2017-08-07T09:33:58.395Z,2.17
2017-08-07T09:36:25.910Z,2.20
2017-08-07T09:38:53.470Z,2.10
2017-08-07T09:41:20.979Z,1.70
2017-08-07T09:43:48.468Z,2.57
2017-08-07T09:46:16.008Z,1.90
2017-08-07T09:48:44.291Z,2.07
2017-08-07T09:51:11.807Z,2.20
2017-08-07T09:53:39.367Z,2.20
2017-08-07T09:56:06.931Z,2.17
2017-08-07T09:58:34.440Z,1.70
2017-08-07T10:01:01.973Z,1.80
2017-08-07T10:03:30.248Z,1.90
2017-08-07T10:05:58.542Z,2.07
2017-08-07T10:08:26.084Z,1.90
2017-08-07T10:10:54.350Z,2.27
2017-08-07T10:13:21.845Z,1.90
2017-08-07T10:15:49.376Z,1.93
2017-08-07T10:18:16.886Z,1.70
2017-08-07T10:20:44.431Z,1.93
2017-08-07T10:23:11.959Z,1.80
2017-08-07T10:25:40.259Z,1.87
2017-08-07T10:28:07.782Z,1.70
2017-08-07T10:30:35.330Z,1.90
2017-08-07T10:33:02.856Z,1.87
2017-08-07T10:35:30.345Z,2.13
2017-08-07T10:37:57.953Z,1.50
2017-08-07T10:40:25.445Z,1.83
2017-08-07T10:42:52.936Z,1.87
2017-08-07T10:45:20.460Z,1.77
2017-08-07T10:47:47.976Z,2.17
2017-08-07T10:50:16.250Z,2.17
2017-08-07T10:52:44.548Z,1.80
2017-08-07T10:55:12.041Z,2.20
2017-08-07T10:57:39.540Z,2.07
2017-08-07T11:00:07.057Z,2.07
2017-08-07T11:02:34.576Z,2.07
2017-08-07T11:05:02.105Z,1.80
2017-08-07T11:07:29.632Z,2.10
2017-08-07T11:09:57.133Z,2.07
2017-08-07T11:12:25.409Z,2.60
2017-08-07T11:14:53.709Z,1.90
2017-08-07T11:17:21.197Z,2.03
2017-08-07T11:19:48.686Z,1.90
2017-08-07T11:22:16.189Z,1.90
2017-08-07T11:24:43.709Z,1.67
2017-08-07T11:27:11.220Z,2.10
2017-08-07T11:29:38.751Z,2.27
2017-08-07T11:32:06.269Z,2.50
2017-08-07T11:34:33.753Z,2.57
2017-08-07T11:37:02.060Z,2.53
2017-08-07T11:39:29.552Z,2.20
2017-08-07T11:41:57.033Z,2.10
2017-08-07T11:44:24.547Z,1.90
2017-08-07T11:46:52.051Z,2.10
2017-08-07T11:49:19.542Z,2.37
2017-08-07T11:51:47.084Z,2.13
2017-08-07T11:54:15.361Z,2.70
2017-08-07T11:56:43.623Z,2.30
2017-08-07T11:59:11.931Z,1.83
2017-08-07T12:01:39.454Z,1.57
2017-08-07T12:04:06.984Z,1.70
2017-08-07T12:06:34.519Z,2.07
2017-08-07T12:09:02.163Z,2.17
2017-08-07T12:11:29.741Z,1.90
2017-08-07T12:13:57.267Z,2.10
2017-08-07T12:16:25.544Z,2.03
2017-08-07T12:18:53.813Z,2.10
2017-08-07T12:21:21.359Z,1.90
2017-08-07T12:23:48.903Z,2.00
2017-08-07T12:26:16.401Z,2.00
2017-08-07T12:28:44.693Z,2.00
2017-08-07T12:31:12.953Z,2.00
2017-08-07T12:33:41.205Z,1.70
2017-08-07T12:36:08.743Z,1.70
2017-08-07T12:38:36.237Z,1.70
2017-08-07T12:41:03.721Z,1.90
2017-08-07T12:43:31.252Z,1.70
2017-08-07T12:45:58.740Z,2.00
2017-08-07T12:48:26.268Z,1.87
2017-08-07T12:50:53.797Z,1.97
2017-08-07T12:53:21.286Z,2.00
2017-08-07T12:55:48.797Z,1.90
2017-08-07T12:58:16.315Z,2.40
2017-08-07T13:00:44.596Z,2.27
2017-08-07T13:03:12.852Z,1.90
2017-08-07T13:05:40.394Z,1.93
2017-08-07T13:08:07.899Z,2.23
2017-08-07T13:10:35.409Z,1.80
2017-08-07T13:13:02.955Z,2.00
2017-08-07T13:15:30.463Z,2.30
2017-08-07T13:17:58.739Z,2.00
2017-08-07T13:20:27.085Z,2.60
2017-08-07T13:22:54.577Z,2.00
2017-08-07T13:25:22.849Z,2.40
2017-08-07T13:27:51.140Z,2.03
2017-08-07T13:30:19.404Z,2.40
2017-08-07T13:32:47.664Z,2.03
2017-08-07T13:35:15.188Z,2.20
2017-08-07T13:37:42.676Z,1.60
2017-08-07T13:40:10.177Z,1.83
2017-08-07T13:42:37.707Z,2.10
2017-08-07T13:45:05.208Z,2.17
2017-08-07T13:47:32.700Z,1.90
2017-08-07T13:50:00.230Z,2.20
2017-08-07T13:52:27.755Z,1.80
2017-08-07T13:54:56.037Z,2.00
2017-08-07T13:57:23.569Z,2.60
2017-08-07T13:59:51.076Z,2.17
2017-08-07T14:02:18.587Z,2.00
2017-08-07T14:04:46.124Z,1.97
2017-08-07T14:07:13.638Z,2.00
2017-08-07T14:09:41.156Z,1.80
2017-08-07T14:12:08.707Z,1.87
2017-08-07T14:14:36.224Z,1.93
2017-08-07T14:17:03.746Z,1.90
2017-08-07T14:19:31.302Z,1.80
2017-08-07T14:21:58.823Z,2.27
2017-08-07T14:24:26.323Z,1.97
2017-08-07T14:26:53.833Z,1.90
2017-08-07T14:29:21.342Z,2.20
2017-08-07T14:31:48.851Z,2.07
2017-08-07T14:34:16.374Z,2.37
2017-08-07T14:36:43.879Z,2.20
2017-08-07T14:39:11.368Z,2.37
2017-08-07T14:41:38.896Z,1.90
2017-08-07T14:44:06.416Z,2.30
2017-08-07T14:46:33.940Z,2.50
2017-08-07T14:49:01.462Z,1.90
2017-08-07T14:51:28.969Z,2.10
2017-08-07T14:53:56.459Z,2.07
2017-08-07T14:56:23.979Z,2.40
2017-08-07T14:58:51.473Z,2.20
2017-08-07T15:01:18.979Z,2.40
2017-08-07T15:03:46.522Z,2.57
2017-08-07T15:06:14.037Z,2.50
2017-08-07T15:08:42.308Z,2.60
2017-08-07T15:11:09.836Z,2.47
2017-08-07T15:13:37.336Z,2.10
2017-08-07T15:16:04.833Z,2.03
2017-08-07T15:18:32.362Z,2.23
2017-08-07T15:20:59.890Z,1.73
2017-08-07T15:23:27.396Z,2.03
2017-08-07T15:25:54.940Z,2.00
2017-08-07T15:28:22.455Z,2.00
2017-08-07T15:30:49.979Z,1.80
2017-08-07T15:33:17.521Z,2.43
2017-08-07T15:35:45.037Z,2.17
2017-08-07T15:38:12.562Z,2.20
2017-08-07T15:40:40.188Z,2.20
2017-08-07T15:43:08.460Z,1.77
2017-08-07T15:45:36.730Z,1.70
2017-08-07T15:48:04.262Z,2.10
2017-08-07T15:50:31.765Z,2.57
2017-08-07T15:52:59.866Z,2.10
2017-08-07T15:55:27.469Z,2.40
2017-08-07T15:57:55.760Z,2.07
2017-08-07T16:00:23.272Z,2.27
2017-08-07T16:02:50.817Z,2.00
2017-08-07T16:05:19.016Z,2.03
2017-08-07T16:07:46.771Z,2.30
2017-08-07T16:10:14.308Z,1.93
2017-08-07T16:12:41.805Z,2.00
2017-08-07T16:15:09.317Z,1.90
2017-08-07T16:17:37.169Z,2.13
2017-08-07T16:20:04.662Z,2.20
2017-08-07T16:22:32.167Z,2.07
2017-08-07T16:24:59.696Z,2.20
2017-08-07T16:27:27.400Z,1.90
2017-08-07T16:30:02.114Z,2.00
2017-08-07T16:32:29.632Z,2.63
2017-08-07T16:34:58.862Z,2.27
2017-08-07T16:37:27.012Z,2.17
2017-08-07T16:39:54.948Z,2.10
2017-08-07T16:42:24.849Z,1.83
2017-08-07T16:44:52.449Z,2.47
2017-08-07T16:47:19.944Z,2.43
2017-08-07T16:49:47.443Z,2.50
2017-08-07T16:52:17.838Z,2.23
2017-08-07T16:54:45.579Z,2.07
2017-08-07T16:57:13.091Z,1.93
2017-08-07T16:59:40.694Z,2.03
2017-08-07T17:02:08.211Z,2.43
2017-08-07T17:04:35.714Z,2.13
2017-08-07T17:07:03.244Z,2.03
2017-08-07T17:09:32.418Z,2.13
2017-08-07T17:11:59.960Z,2.50
2017-08-07T17:14:27.477Z,2.70
2017-08-07T17:16:54.988Z,2.33
2017-08-07T17:19:22.520Z,2.83
2017-08-07T17:21:51.679Z,2.00
2017-08-07T17:24:19.638Z,2.23
2017-08-07T17:26:47.239Z,2.40
2017-08-07T17:29:14.796Z,2.03
2017-08-07T17:31:43.267Z,2.80
2017-08-07T17:34:10.811Z,2.63
2017-08-07T17:36:38.356Z,2.30
2017-08-07T17:39:05.940Z,2.30
2017-08-07T17:41:33.479Z,2.20
2017-08-07T17:44:01.000Z,2.40
2017-08-07T17:46:29.314Z,2.53
2017-08-07T17:48:56.820Z,2.50
2017-08-07T17:51:24.314Z,3.10
2017-08-07T17:53:51.853Z,3.03
2017-08-07T17:56:20.151Z,2.30
2017-08-07T17:58:47.647Z,2.73
2017-08-07T18:01:15.188Z,2.37
2017-08-07T18:03:42.693Z,2.20
2017-08-07T18:06:10.193Z,2.33
2017-08-07T18:08:37.713Z,2.50
2017-08-07T18:11:05.223Z,2.30
2017-08-07T18:13:32.729Z,2.40
2017-08-07T18:16:00.263Z,2.40
2017-08-07T18:18:27.757Z,2.20
2017-08-07T18:20:56.021Z,2.50
2017-08-07T18:23:23.558Z,3.13
2017-08-07T18:25:51.079Z,2.13
2017-08-07T18:28:18.596Z,2.00
2017-08-07T18:30:46.147Z,2.47
2017-08-07T18:33:13.655Z,2.63
2017-08-07T18:35:41.192Z,2.53
2017-08-07T18:38:08.745Z,2.40
2017-08-07T18:40:37.010Z,2.60
2017-08-07T18:43:04.518Z,3.60
2017-08-07T18:45:32.053Z,2.73
2017-08-07T18:47:59.548Z,2.87
2017-08-07T18:50:27.042Z,2.70
2017-08-07T18:52:54.604Z,4.57
2017-08-07T18:55:22.127Z,2.60
2017-08-07T18:57:49.636Z,2.73
2017-08-07T19:00:17.934Z,2.30
2017-08-07T19:02:45.442Z,2.20
2017-08-07T19:05:12.938Z,2.73
2017-08-07T19:19:58.101Z,3.10
2017-08-07T19:22:25.617Z,3.13
2017-08-07T19:24:53.120Z,3.60
2017-08-07T19:27:20.617Z,3.23
2017-08-07T19:29:48.166Z,2.90
2017-08-07T19:32:15.693Z,3.87
2017-08-07T19:34:43.189Z,3.10
2017-08-07T19:37:10.787Z,3.40
2017-08-07T19:39:39.073Z,4.27
2017-08-07T19:42:07.581Z,2.40
2017-08-07T19:44:38.703Z,2.93
2017-08-07T19:47:06.993Z,3.33
2017-08-07T19:49:34.498Z,4.00
2017-08-07T19:52:02.044Z,3.33
2017-08-07T19:54:29.552Z,3.60
2017-08-07T19:56:57.918Z,3.20
2017-08-07T19:59:26.210Z,3.23
2017-08-07T20:01:54.477Z,3.17
2017-08-07T20:04:22.740Z,3.20
2017-08-07T20:06:50.273Z,3.23
2017-08-07T20:09:19.532Z,2.97
2017-08-07T20:11:47.088Z,3.40
2017-08-07T20:14:14.617Z,3.60
2017-08-07T20:16:42.118Z,3.47
2017-08-07T20:19:09.632Z,3.60
2017-08-07T20:21:37.165Z,3.00
2017-08-07T20:24:04.684Z,2.63
2017-08-07T20:26:32.202Z,3.57
2017-08-07T20:28:59.727Z,3.13
2017-08-07T20:31:27.248Z,2.80
2017-08-07T20:33:55.517Z,3.43
2017-08-07T20:36:23.826Z,3.13
2017-08-07T20:38:51.338Z,3.23
2017-08-07T20:41:18.832Z,3.50
2017-08-07T20:43:46.359Z,3.43
2017-08-07T20:46:13.873Z,3.40
2017-08-07T20:48:41.379Z,3.90
2017-08-07T20:51:09.676Z,3.80
2017-08-07T20:53:37.959Z,4.10
2017-08-07T20:56:05.467Z,4.37
2017-08-07T20:58:33.088Z,3.90
2017-08-07T21:01:00.603Z,3.47
2017-08-07T21:03:28.117Z,3.27
2017-08-07T21:05:55.763Z,3.53
2017-08-07T21:08:23.293Z,4.13
2017-08-07T21:10:51.593Z,4.80
2017-08-07T21:13:19.904Z,4.40
2017-08-07T21:15:47.435Z,4.00
2017-08-07T21:18:14.963Z,4.10
2017-08-07T21:20:42.516Z,3.70
2017-08-07T21:23:10.039Z,3.43
2017-08-07T21:25:37.545Z,3.60
2017-08-07T21:28:05.057Z,3.87
2017-08-07T21:30:32.595Z,4.47
2017-08-07T21:33:00.092Z,4.10
2017-08-07T21:35:27.672Z,4.03
2017-08-07T21:37:55.173Z,5.47
2017-08-07T21:40:22.732Z,4.93
2017-08-07T21:42:50.249Z,3.97
2017-08-07T21:45:17.777Z,4.00
2017-08-07T21:47:45.273Z,4.13
2017-08-07T21:50:12.795Z,3.73
2017-08-07T21:52:40.311Z,4.53
2017-08-07T21:55:08.587Z,3.70
2017-08-07T21:57:36.886Z,4.37
2017-08-07T22:00:04.399Z,4.40
2017-08-07T22:02:31.892Z,4.20
2017-08-07T22:04:59.416Z,5.03
2017-08-07T22:07:26.935Z,4.50
2017-08-07T22:09:54.433Z,3.50
2017-08-07T22:12:21.974Z,4.60
2017-08-07T22:14:49.487Z,4.00
2017-08-07T22:17:17.000Z,5.37
2017-08-07T22:19:44.797Z,5.43
2017-08-07T22:22:12.607Z,5.43
2017-08-07T22:24:40.348Z,5.37
2017-08-07T22:27:08.234Z,6.30
2017-08-07T22:29:35.991Z,5.37
2017-08-07T22:32:04.278Z,6.67
2017-08-07T22:34:31.945Z,4.70
2017-08-07T22:36:59.518Z,5.30
2017-08-07T22:39:27.058Z,5.93
2017-08-07T22:41:54.657Z,6.07
2017-08-07T22:44:22.199Z,5.60
2017-08-07T22:46:49.735Z,5.70
2017-08-07T22:49:17.296Z,5.60
2017-08-07T22:51:44.974Z,5.70
2017-08-07T22:54:12.498Z,6.43
2017-08-07T22:56:40.082Z,5.60
2017-08-07T22:59:07.644Z,6.50
2017-08-07T23:01:35.177Z,6.10
2017-08-07T23:04:02.734Z,7.00
2017-08-07T23:06:30.267Z,7.00
2017-08-07T23:08:58.586Z,6.63
2017-08-07T23:11:26.142Z,6.20
2017-08-07T23:13:53.678Z,7.30
2017-08-07T23:16:21.217Z,8.30
2017-08-07T23:18:49.568Z,7.83
2017-08-07T23:21:17.107Z,7.10
2017-08-07T23:23:44.634Z,8.53
2017-08-07T23:26:12.206Z,7.90
2017-08-07T23:28:39.740Z,7.37
2017-08-07T23:31:08.046Z,8.93
2017-08-07T23:33:35.625Z,8.73
2017-08-07T23:36:03.157Z,8.77
2017-08-07T23:38:30.683Z,7.93
2017-08-07T23:40:58.234Z,8.30
2017-08-07T23:43:25.779Z,8.40
2017-08-07T23:45:53.309Z,9.27
2017-08-07T23:48:20.881Z,8.70
2017-08-07T23:50:48.421Z,7.70
2017-08-07T23:53:15.961Z,7.40
2017-08-07T23:55:44.290Z,7.83
2017-08-07T23:58:11.835Z,8.27
